sensor_id;sensor_type;location;lat;lon;timestamp;pressure;altitude;pressure_sealevel;temperature;humidity
43450;BME280;29041;42.266;23.110;2022-07-23T00:00:47;96009.81;;;27.76;34.45
43450;BME280;29041;42.266;23.110;2022-07-23T00:03:36;96017.72;;;27.37;34.86
43450;BME280;29041;42.266;23.110;2022-07-23T00:06:23;96018.66;;;27.30;35.01
43450;BME280;29041;42.266;23.110;2022-07-23T00:09:10;96031.31;;;26.87;36.35
43450;BME280;29041;42.266;23.110;2022-07-23T00:11:57;96025.13;;;26.12;37.75
43450;BME280;29041;42.266;23.110;2022-07-23T00:14:44;96019.38;;;26.94;36.05
43450;BME280;29041;42.266;23.110;2022-07-23T00:17:32;96026.78;;;26.77;36.31
43450;BME280;29041;42.266;23.110;2022-07-23T00:20:20;96021.50;;;26.86;36.01
43450;BME280;29041;42.266;23.110;2022-07-23T00:23:07;96024.69;;;26.85;36.02
43450;BME280;29041;42.266;23.110;2022-07-23T00:25:55;96017.75;;;26.97;35.96
43450;BME280;29041;42.266;23.110;2022-07-23T00:28:42;96023.06;;;26.64;36.19
43450;BME280;29041;42.266;23.110;2022-07-23T00:31:30;96016.56;;;26.78;35.96
43450;BME280;29041;42.266;23.110;2022-07-23T00:34:17;96026.28;;;26.38;36.61
43450;BME280;29041;42.266;23.110;2022-07-23T00:37:06;96019.34;;;26.03;37.36
43450;BME280;29041;42.266;23.110;2022-07-23T00:39:53;96019.88;;;26.45;36.66
43450;BME280;29041;42.266;23.110;2022-07-23T00:42:40;96018.25;;;26.24;36.86
43450;BME280;29041;42.266;23.110;2022-07-23T00:45:27;96015.69;;;27.21;35.16
43450;BME280;29041;42.266;23.110;2022-07-23T00:48:15;96005.03;;;26.83;35.58
43450;BME280;29041;42.266;23.110;2022-07-23T00:51:02;96016.13;;;26.55;36.59
43450;BME280;29041;42.266;23.110;2022-07-23T00:53:51;96018.59;;;26.02;37.44
43450;BME280;29041;42.266;23.110;2022-07-23T00:56:39;96015.34;;;25.84;37.71
43450;BME280;29041;42.266;23.110;2022-07-23T00:59:27;96020.97;;;26.00;37.46
43450;BME280;29041;42.266;23.110;2022-07-23T01:02:14;96016.84;;;26.59;36.25
43450;BME280;29041;42.266;23.110;2022-07-23T01:05:02;96024.56;;;26.24;36.98
43450;BME280;29041;42.266;23.110;2022-07-23T01:07:49;96022.50;;;26.52;36.69
43450;BME280;29041;42.266;23.110;2022-07-23T01:10:38;96024.38;;;26.35;36.94
43450;BME280;29041;42.266;23.110;2022-07-23T01:13:26;96023.88;;;25.62;38.30
43450;BME280;29041;42.266;23.110;2022-07-23T01:16:13;96034.78;;;25.69;38.23
43450;BME280;29041;42.266;23.110;2022-07-23T01:19:01;96032.13;;;25.89;37.83
43450;BME280;29041;42.266;23.110;2022-07-23T01:21:50;96034.13;;;25.61;38.49
43450;BME280;29041;42.266;23.110;2022-07-23T01:24:40;96035.72;;;25.59;38.59
43450;BME280;29041;42.266;23.110;2022-07-23T01:27:27;96037.59;;;25.38;39.19
43450;BME280;29041;42.266;23.110;2022-07-23T01:30:14;96036.47;;;25.28;39.25
43450;BME280;29041;42.266;23.110;2022-07-23T01:33:01;96028.78;;;25.50;38.98
43450;BME280;29041;42.266;23.110;2022-07-23T01:35:48;96029.63;;;25.44;39.21
43450;BME280;29041;42.266;23.110;2022-07-23T01:38:35;96034.06;;;25.34;39.35
43450;BME280;29041;42.266;23.110;2022-07-23T01:41:24;96030.44;;;25.44;39.03
43450;BME280;29041;42.266;23.110;2022-07-23T01:44:11;96030.66;;;24.92;40.12
43450;BME280;29041;42.266;23.110;2022-07-23T01:46:58;96030.94;;;25.01;40.14
43450;BME280;29041;42.266;23.110;2022-07-23T01:49:45;96019.91;;;25.05;39.92
43450;BME280;29041;42.266;23.110;2022-07-23T01:52:32;96026.16;;;25.40;39.17
43450;BME280;29041;42.266;23.110;2022-07-23T01:55:20;96030.06;;;25.42;39.25
43450;BME280;29041;42.266;23.110;2022-07-23T01:58:08;96025.78;;;25.69;38.79
43450;BME280;29041;42.266;23.110;2022-07-23T02:00:56;96034.25;;;25.19;39.67
43450;BME280;29041;42.266;23.110;2022-07-23T02:03:43;96034.00;;;25.41;39.34
43450;BME280;29041;42.266;23.110;2022-07-23T02:06:30;96034.72;;;25.14;39.92
43450;BME280;29041;42.266;23.110;2022-07-23T02:09:17;96036.53;;;24.94;40.43
43450;BME280;29041;42.266;23.110;2022-07-23T02:12:05;96040.84;;;25.26;39.80
43450;BME280;29041;42.266;23.110;2022-07-23T02:14:53;96041.72;;;25.19;39.94
43450;BME280;29041;42.266;23.110;2022-07-23T02:17:41;96044.00;;;24.90;40.65
43450;BME280;29041;42.266;23.110;2022-07-23T02:20:28;96038.94;;;24.88;40.38
43450;BME280;29041;42.266;23.110;2022-07-23T02:23:15;96036.91;;;25.58;38.95
43450;BME280;29041;42.266;23.110;2022-07-23T02:26:02;96045.88;;;25.00;40.40
43450;BME280;29041;42.266;23.110;2022-07-23T02:28:49;96044.84;;;24.86;40.60
43450;BME280;29041;42.266;23.110;2022-07-23T02:31:39;96047.78;;;25.03;40.11
43450;BME280;29041;42.266;23.110;2022-07-23T02:34:27;96048.19;;;25.01;40.11
43450;BME280;29041;42.266;23.110;2022-07-23T02:37:14;96044.38;;;24.50;41.09
43450;BME280;29041;42.266;23.110;2022-07-23T02:40:01;96052.38;;;24.33;41.48
43450;BME280;29041;42.266;23.110;2022-07-23T02:42:48;96052.19;;;24.51;41.22
43450;BME280;29041;42.266;23.110;2022-07-23T02:45:36;96051.94;;;24.80;40.57
43450;BME280;29041;42.266;23.110;2022-07-23T02:48:24;96062.78;;;24.53;41.04
43450;BME280;29041;42.266;23.110;2022-07-23T02:51:11;96073.34;;;24.54;40.93
43450;BME280;29041;42.266;23.110;2022-07-23T02:53:58;96075.78;;;24.45;40.94
43450;BME280;29041;42.266;23.110;2022-07-23T02:56:45;96072.06;;;24.70;40.52
43450;BME280;29041;42.266;23.110;2022-07-23T02:59:33;96068.44;;;24.35;41.16
43450;BME280;29041;42.266;23.110;2022-07-23T03:02:20;96079.53;;;24.62;40.32
43450;BME280;29041;42.266;23.110;2022-07-23T03:05:09;96081.44;;;24.23;41.40
43450;BME280;29041;42.266;23.110;2022-07-23T03:07:57;96089.56;;;23.78;42.15
43450;BME280;29041;42.266;23.110;2022-07-23T03:10:44;96077.97;;;24.19;41.00
43450;BME280;29041;42.266;23.110;2022-07-23T03:13:31;96087.81;;;24.10;41.46
43450;BME280;29041;42.266;23.110;2022-07-23T03:16:18;96086.34;;;23.94;41.96
43450;BME280;29041;42.266;23.110;2022-07-23T03:19:05;96087.28;;;24.33;40.91
43450;BME280;29041;42.266;23.110;2022-07-23T03:21:53;96080.34;;;24.17;41.30
43450;BME280;29041;42.266;23.110;2022-07-23T03:24:41;96083.38;;;24.30;41.00
43450;BME280;29041;42.266;23.110;2022-07-23T03:27:42;96086.34;;;23.98;41.69
43450;BME280;29041;42.266;23.110;2022-07-23T03:30:31;96083.63;;;23.94;41.53
43450;BME280;29041;42.266;23.110;2022-07-23T03:33:23;96086.31;;;24.05;41.61
43450;BME280;29041;42.266;23.110;2022-07-23T03:36:10;96083.63;;;23.98;41.85
43450;BME280;29041;42.266;23.110;2022-07-23T03:38:59;96086.53;;;23.61;42.05
43450;BME280;29041;42.266;23.110;2022-07-23T03:41:46;96094.44;;;23.45;42.48
43450;BME280;29041;42.266;23.110;2022-07-23T03:44:33;96101.09;;;23.48;42.46
43450;BME280;29041;42.266;23.110;2022-07-23T03:47:22;96095.88;;;23.71;42.02
43450;BME280;29041;42.266;23.110;2022-07-23T03:50:09;96097.56;;;23.47;42.26
43450;BME280;29041;42.266;23.110;2022-07-23T03:52:56;96099.88;;;23.56;42.19
43450;BME280;29041;42.266;23.110;2022-07-23T03:55:45;96104.13;;;23.68;41.82
43450;BME280;29041;42.266;23.110;2022-07-23T03:58:32;96108.88;;;23.56;42.03
43450;BME280;29041;42.266;23.110;2022-07-23T04:01:20;96103.34;;;23.67;41.82
43450;BME280;29041;42.266;23.110;2022-07-23T04:04:07;96108.06;;;23.63;41.88
43450;BME280;29041;42.266;23.110;2022-07-23T04:06:54;96110.94;;;23.31;42.56
43450;BME280;29041;42.266;23.110;2022-07-23T04:09:41;96102.75;;;23.27;42.51
43450;BME280;29041;42.266;23.110;2022-07-23T04:12:29;96106.66;;;23.26;42.84
43450;BME280;29041;42.266;23.110;2022-07-23T04:15:16;96112.97;;;22.90;43.51
43450;BME280;29041;42.266;23.110;2022-07-23T04:18:04;96123.03;;;23.44;42.49
43450;BME280;29041;42.266;23.110;2022-07-23T04:20:51;96114.09;;;23.07;43.34
43450;BME280;29041;42.266;23.110;2022-07-23T04:23:39;96113.41;;;24.48;40.41
43450;BME280;29041;42.266;23.110;2022-07-23T04:26:26;96120.97;;;24.30;41.02
43450;BME280;29041;42.266;23.110;2022-07-23T04:29:14;96123.00;;;24.22;41.28
43450;BME280;29041;42.266;23.110;2022-07-23T04:32:01;96123.56;;;23.95;42.01
43450;BME280;29041;42.266;23.110;2022-07-23T04:34:49;96126.56;;;24.19;41.47
43450;BME280;29041;42.266;23.110;2022-07-23T04:37:36;96133.63;;;24.69;40.79
43450;BME280;29041;42.266;23.110;2022-07-23T04:40:24;96132.19;;;24.50;40.82
43450;BME280;29041;42.266;23.110;2022-07-23T04:43:11;96122.38;;;24.52;40.64
43450;BME280;29041;42.266;23.110;2022-07-23T04:46:00;96129.78;;;25.05;39.83
43450;BME280;29041;42.266;23.110;2022-07-23T04:48:47;96129.31;;;25.10;39.81
43450;BME280;29041;42.266;23.110;2022-07-23T04:51:34;96132.28;;;25.26;39.61
43450;BME280;29041;42.266;23.110;2022-07-23T04:54:22;96125.66;;;25.24;39.67
43450;BME280;29041;42.266;23.110;2022-07-23T04:57:09;96131.81;;;24.97;40.30
43450;BME280;29041;42.266;23.110;2022-07-23T04:59:56;96126.19;;;25.08;40.10
43450;BME280;29041;42.266;23.110;2022-07-23T05:02:45;96129.63;;;25.19;40.23
43450;BME280;29041;42.266;23.110;2022-07-23T05:05:32;96129.22;;;25.21;40.38
43450;BME280;29041;42.266;23.110;2022-07-23T05:08:19;96130.38;;;25.89;39.15
43450;BME280;29041;42.266;23.110;2022-07-23T05:11:07;96135.34;;;24.48;41.13
43450;BME280;29041;42.266;23.110;2022-07-23T05:13:54;96131.38;;;25.37;39.71
43450;BME280;29041;42.266;23.110;2022-07-23T05:16:41;96134.66;;;25.62;39.80
43450;BME280;29041;42.266;23.110;2022-07-23T05:19:30;96132.03;;;26.13;38.60
43450;BME280;29041;42.266;23.110;2022-07-23T05:22:17;96122.59;;;25.84;38.72
43450;BME280;29041;42.266;23.110;2022-07-23T05:25:05;96133.41;;;26.25;38.24
43450;BME280;29041;42.266;23.110;2022-07-23T05:27:52;96129.28;;;26.37;38.21
43450;BME280;29041;42.266;23.110;2022-07-23T05:30:40;96126.81;;;26.94;37.28
43450;BME280;29041;42.266;23.110;2022-07-23T05:33:27;96132.00;;;27.73;35.70
43450;BME280;29041;42.266;23.110;2022-07-23T05:36:15;96132.44;;;27.71;35.61
43450;BME280;29041;42.266;23.110;2022-07-23T05:39:03;96140.50;;;27.62;36.12
43450;BME280;29041;42.266;23.110;2022-07-23T05:41:50;96144.72;;;26.31;38.97
43450;BME280;29041;42.266;23.110;2022-07-23T05:44:37;96145.50;;;25.73;39.66
43450;BME280;29041;42.266;23.110;2022-07-23T05:47:24;96142.72;;;26.04;39.44
43450;BME280;29041;42.266;23.110;2022-07-23T05:50:12;96134.56;;;26.28;39.13
43450;BME280;29041;42.266;23.110;2022-07-23T05:53:01;96130.44;;;26.40;38.80
43450;BME280;29041;42.266;23.110;2022-07-23T05:55:48;96131.19;;;26.17;39.32
43450;BME280;29041;42.266;23.110;2022-07-23T05:58:35;96139.00;;;26.18;39.40
43450;BME280;29041;42.266;23.110;2022-07-23T06:01:22;96139.72;;;26.50;39.07
43450;BME280;29041;42.266;23.110;2022-07-23T06:04:09;96124.53;;;28.10;36.77
43450;BME280;29041;42.266;23.110;2022-07-23T06:06:57;96121.53;;;27.84;36.35
43450;BME280;29041;42.266;23.110;2022-07-23T06:09:45;96128.53;;;28.58;34.85
43450;BME280;29041;42.266;23.110;2022-07-23T06:12:34;96123.34;;;28.77;33.88
43450;BME280;29041;42.266;23.110;2022-07-23T06:15:22;96118.44;;;28.52;33.16
43450;BME280;29041;42.266;23.110;2022-07-23T06:18:09;96123.97;;;28.85;32.70
43450;BME280;29041;42.266;23.110;2022-07-23T06:20:56;96113.06;;;29.23;31.61
43450;BME280;29041;42.266;23.110;2022-07-23T06:23:43;96118.06;;;28.99;31.52
43450;BME280;29041;42.266;23.110;2022-07-23T06:26:32;96111.59;;;30.16;30.75
43450;BME280;29041;42.266;23.110;2022-07-23T06:29:19;96104.69;;;29.82;30.67
43450;BME280;29041;42.266;23.110;2022-07-23T06:32:06;96103.56;;;30.70;29.32
43450;BME280;29041;42.266;23.110;2022-07-23T06:34:54;96100.16;;;30.66;29.77
43450;BME280;29041;42.266;23.110;2022-07-23T06:37:41;96096.28;;;29.86;28.89
43450;BME280;29041;42.266;23.110;2022-07-23T06:40:28;96102.38;;;30.45;27.46
43450;BME280;29041;42.266;23.110;2022-07-23T06:43:16;96094.94;;;31.25;27.04
43450;BME280;29041;42.266;23.110;2022-07-23T06:46:04;96098.94;;;31.46;26.34
43450;BME280;29041;42.266;23.110;2022-07-23T06:48:51;96100.66;;;30.74;27.34
43450;BME280;29041;42.266;23.110;2022-07-23T06:51:38;96097.66;;;31.60;27.06
43450;BME280;29041;42.266;23.110;2022-07-23T06:54:25;96094.09;;;31.60;27.68
43450;BME280;29041;42.266;23.110;2022-07-23T06:57:12;96094.44;;;31.93;26.78
43450;BME280;29041;42.266;23.110;2022-07-23T07:00:01;96092.97;;;32.11;26.62
43450;BME280;29041;42.266;23.110;2022-07-23T07:02:49;96089.47;;;32.79;26.31
43450;BME280;29041;42.266;23.110;2022-07-23T07:05:36;96083.09;;;32.60;26.65
43450;BME280;29041;42.266;23.110;2022-07-23T07:08:25;96077.53;;;32.69;26.85
43450;BME280;29041;42.266;23.110;2022-07-23T07:11:12;96079.84;;;32.43;26.72
43450;BME280;29041;42.266;23.110;2022-07-23T07:13:59;96076.16;;;32.74;27.20
43450;BME280;29041;42.266;23.110;2022-07-23T07:16:48;96077.84;;;32.71;26.27
43450;BME280;29041;42.266;23.110;2022-07-23T07:19:35;96071.09;;;33.10;26.39
43450;BME280;29041;42.266;23.110;2022-07-23T07:22:22;96068.91;;;32.77;25.97
43450;BME280;29041;42.266;23.110;2022-07-23T07:25:09;96056.09;;;32.70;25.58
43450;BME280;29041;42.266;23.110;2022-07-23T07:27:56;96065.47;;;32.63;26.24
43450;BME280;29041;42.266;23.110;2022-07-23T07:30:43;96047.22;;;33.64;24.51
43450;BME280;29041;42.266;23.110;2022-07-23T07:33:32;96058.97;;;33.59;24.63
43450;BME280;29041;42.266;23.110;2022-07-23T07:36:19;96056.06;;;33.96;24.30
43450;BME280;29041;42.266;23.110;2022-07-23T07:39:06;96051.31;;;34.21;23.54
43450;BME280;29041;42.266;23.110;2022-07-23T07:41:56;96047.63;;;33.72;23.35
43450;BME280;29041;42.266;23.110;2022-07-23T07:44:43;96046.97;;;33.16;23.79
43450;BME280;29041;42.266;23.110;2022-07-23T07:47:30;96027.31;;;34.48;22.83
43450;BME280;29041;42.266;23.110;2022-07-23T07:50:19;96045.00;;;33.87;22.49
43450;BME280;29041;42.266;23.110;2022-07-23T07:53:06;96042.69;;;34.43;22.39
43450;BME280;29041;42.266;23.110;2022-07-23T07:55:54;96038.16;;;35.99;20.89
43450;BME280;29041;42.266;23.110;2022-07-23T07:58:41;96023.88;;;35.47;20.20
43450;BME280;29041;42.266;23.110;2022-07-23T08:01:28;96019.38;;;37.56;18.80
43450;BME280;29041;42.266;23.110;2022-07-23T08:04:16;96026.38;;;39.98;15.98
43450;BME280;29041;42.266;23.110;2022-07-23T08:07:04;96021.50;;;39.99;16.71
43450;BME280;29041;42.266;23.110;2022-07-23T08:09:51;96016.03;;;41.47;14.53
43450;BME280;29041;42.266;23.110;2022-07-23T08:12:40;96010.53;;;42.41;13.55
43450;BME280;29041;42.266;23.110;2022-07-23T08:15:28;96016.38;;;40.03;15.61
43450;BME280;29041;42.266;23.110;2022-07-23T08:18:16;96011.97;;;40.42;15.36
43450;BME280;29041;42.266;23.110;2022-07-23T08:21:03;96016.75;;;40.64;14.31
43450;BME280;29041;42.266;23.110;2022-07-23T08:23:52;96001.56;;;39.97;14.03
43450;BME280;29041;42.266;23.110;2022-07-23T08:26:40;96015.09;;;39.13;15.38
43450;BME280;29041;42.266;23.110;2022-07-23T08:29:27;96012.56;;;40.01;14.49
43450;BME280;29041;42.266;23.110;2022-07-23T08:32:14;96007.72;;;40.01;14.13
43450;BME280;29041;42.266;23.110;2022-07-23T08:35:01;96011.41;;;38.73;15.28
43450;BME280;29041;42.266;23.110;2022-07-23T08:37:48;96012.13;;;38.62;15.64
43450;BME280;29041;42.266;23.110;2022-07-23T08:40:39;96003.03;;;38.84;16.26
43450;BME280;29041;42.266;23.110;2022-07-23T08:43:30;96000.34;;;39.24;16.23
43450;BME280;29041;42.266;23.110;2022-07-23T08:46:19;96002.84;;;38.39;16.88
43450;BME280;29041;42.266;23.110;2022-07-23T08:49:06;95994.50;;;40.60;15.83
43450;BME280;29041;42.266;23.110;2022-07-23T08:51:54;95993.53;;;38.76;16.86
43450;BME280;29041;42.266;23.110;2022-07-23T08:54:41;95994.72;;;39.35;16.56
43450;BME280;29041;42.266;23.110;2022-07-23T08:57:31;95981.47;;;41.41;16.03
43450;BME280;29041;42.266;23.110;2022-07-23T09:00:19;95986.47;;;40.28;16.31
43450;BME280;29041;42.266;23.110;2022-07-23T09:03:07;95986.84;;;40.50;15.88
43450;BME280;29041;42.266;23.110;2022-07-23T09:05:55;95971.38;;;41.57;16.15
43450;BME280;29041;42.266;23.110;2022-07-23T09:08:44;95978.97;;;40.96;16.15
43450;BME280;29041;42.266;23.110;2022-07-23T09:11:32;95982.25;;;42.65;14.53
43450;BME280;29041;42.266;23.110;2022-07-23T09:14:36;95980.47;;;43.20;13.96
43450;BME280;29041;42.266;23.110;2022-07-23T09:17:23;95974.41;;;41.90;14.31
43450;BME280;29041;42.266;23.110;2022-07-23T09:20:13;95981.34;;;43.15;13.82
43450;BME280;29041;42.266;23.110;2022-07-23T09:23:01;95972.16;;;41.82;14.92
43450;BME280;29041;42.266;23.110;2022-07-23T09:25:48;95975.97;;;43.30;14.11
43450;BME280;29041;42.266;23.110;2022-07-23T09:28:49;95970.88;;;43.88;13.78
43450;BME280;29041;42.266;23.110;2022-07-23T09:31:47;95977.88;;;43.22;14.21
43450;BME280;29041;42.266;23.110;2022-07-23T09:34:36;95968.63;;;41.15;15.78
43450;BME280;29041;42.266;23.110;2022-07-23T09:37:24;95959.44;;;41.45;15.27
43450;BME280;29041;42.266;23.110;2022-07-23T09:40:12;95955.72;;;40.36;16.34
43450;BME280;29041;42.266;23.110;2022-07-23T09:43:02;95951.72;;;40.09;15.94
43450;BME280;29041;42.266;23.110;2022-07-23T09:45:49;95955.81;;;40.13;16.46
43450;BME280;29041;42.266;23.110;2022-07-23T09:48:37;95939.53;;;39.84;16.80
43450;BME280;29041;42.266;23.110;2022-07-23T09:51:24;95948.38;;;38.63;17.61
43450;BME280;29041;42.266;23.110;2022-07-23T09:54:25;95931.91;;;39.16;17.28
43450;BME280;29041;42.266;23.110;2022-07-23T09:57:13;95949.78;;;39.47;16.92
43450;BME280;29041;42.266;23.110;2022-07-23T10:00:02;95926.81;;;39.09;16.74
43450;BME280;29041;42.266;23.110;2022-07-23T10:02:51;95920.34;;;38.68;17.20
43450;BME280;29041;42.266;23.110;2022-07-23T10:05:41;95930.63;;;39.74;17.14
43450;BME280;29041;42.266;23.110;2022-07-23T10:08:32;95917.22;;;40.08;16.50
43450;BME280;29041;42.266;23.110;2022-07-23T10:11:19;95902.28;;;40.42;16.66
43450;BME280;29041;42.266;23.110;2022-07-23T10:14:06;95916.38;;;39.32;17.61
43450;BME280;29041;42.266;23.110;2022-07-23T10:16:53;95910.16;;;39.90;16.95
43450;BME280;29041;42.266;23.110;2022-07-23T10:19:41;95911.31;;;40.18;16.53
43450;BME280;29041;42.266;23.110;2022-07-23T10:22:31;95903.38;;;40.75;16.40
43450;BME280;29041;42.266;23.110;2022-07-23T10:25:26;95909.06;;;40.05;16.55
43450;BME280;29041;42.266;23.110;2022-07-23T10:28:26;95904.63;;;40.80;16.10
43450;BME280;29041;42.266;23.110;2022-07-23T10:31:28;95891.31;;;40.38;16.56
43450;BME280;29041;42.266;23.110;2022-07-23T10:34:25;95896.94;;;39.45;16.63
43450;BME280;29041;42.266;23.110;2022-07-23T10:37:21;95893.34;;;40.38;16.19
43450;BME280;29041;42.266;23.110;2022-07-23T10:40:13;95882.91;;;39.40;16.82
43450;BME280;29041;42.266;23.110;2022-07-23T10:43:15;95879.13;;;40.66;15.86
43450;BME280;29041;42.266;23.110;2022-07-23T10:46:31;95878.19;;;40.88;15.08
43450;BME280;29041;42.266;23.110;2022-07-23T10:49:27;95870.09;;;41.15;16.11
43450;BME280;29041;42.266;23.110;2022-07-23T10:52:21;95865.94;;;40.44;15.56
43450;BME280;29041;42.266;23.110;2022-07-23T10:55:40;95852.94;;;42.12;15.07
43450;BME280;29041;42.266;23.110;2022-07-23T10:58:46;95858.41;;;41.05;15.53
43450;BME280;29041;42.266;23.110;2022-07-23T11:01:35;95853.28;;;41.04;15.05
43450;BME280;29041;42.266;23.110;2022-07-23T11:08:14;95834.59;;;41.31;15.08
43450;BME280;29041;42.266;23.110;2022-07-23T11:11:11;95828.97;;;41.31;14.18
43450;BME280;29041;42.266;23.110;2022-07-23T11:13:58;95823.75;;;41.16;14.20
43450;BME280;29041;42.266;23.110;2022-07-23T11:16:46;95820.66;;;40.48;14.91
43450;BME280;29041;42.266;23.110;2022-07-23T11:22:56;95821.31;;;39.59;15.33
43450;BME280;29041;42.266;23.110;2022-07-23T11:25:43;95823.66;;;39.49;14.64
43450;BME280;29041;42.266;23.110;2022-07-23T11:28:32;95822.31;;;41.04;13.99
43450;BME280;29041;42.266;23.110;2022-07-23T11:31:19;95807.69;;;41.61;13.93
43450;BME280;29041;42.266;23.110;2022-07-23T11:34:24;95802.16;;;42.12;13.23
43450;BME280;29041;42.266;23.110;2022-07-23T11:37:28;95798.44;;;42.04;12.95
43450;BME280;29041;42.266;23.110;2022-07-23T11:40:16;95797.88;;;41.43;12.89
43450;BME280;29041;42.266;23.110;2022-07-23T11:43:05;95797.34;;;41.69;12.64
43450;BME280;29041;42.266;23.110;2022-07-23T11:45:58;95793.00;;;41.68;11.51
43450;BME280;29041;42.266;23.110;2022-07-23T11:48:45;95786.00;;;40.70;12.30
43450;BME280;29041;42.266;23.110;2022-07-23T11:51:32;95791.47;;;40.62;12.16
43450;BME280;29041;42.266;23.110;2022-07-23T11:54:19;95783.50;;;41.21;11.92
43450;BME280;29041;42.266;23.110;2022-07-23T11:57:06;95784.56;;;41.87;11.72
43450;BME280;29041;42.266;23.110;2022-07-23T11:59:56;95780.50;;;41.63;11.37
43450;BME280;29041;42.266;23.110;2022-07-23T12:02:48;95770.16;;;42.29;11.66
43450;BME280;29041;42.266;23.110;2022-07-23T12:05:38;95763.44;;;42.64;10.57
43450;BME280;29041;42.266;23.110;2022-07-23T12:08:25;95774.41;;;41.10;10.71
43450;BME280;29041;42.266;23.110;2022-07-23T12:11:13;95770.19;;;41.47;10.76
43450;BME280;29041;42.266;23.110;2022-07-23T12:14:00;95766.84;;;41.48;10.17
43450;BME280;29041;42.266;23.110;2022-07-23T12:17:06;95769.50;;;40.19;11.10
43450;BME280;29041;42.266;23.110;2022-07-23T12:19:55;95759.19;;;40.94;11.29
43450;BME280;29041;42.266;23.110;2022-07-23T12:22:44;95763.13;;;40.18;11.28
43450;BME280;29041;42.266;23.110;2022-07-23T12:25:33;95762.34;;;40.18;11.79
43450;BME280;29041;42.266;23.110;2022-07-23T12:28:21;95757.72;;;40.56;11.90
43450;BME280;29041;42.266;23.110;2022-07-23T12:31:09;95756.53;;;41.07;11.20
43450;BME280;29041;42.266;23.110;2022-07-23T12:33:56;95743.94;;;40.53;11.53
43450;BME280;29041;42.266;23.110;2022-07-23T12:36:45;95730.41;;;40.15;11.58
43450;BME280;29041;42.266;23.110;2022-07-23T12:39:33;95738.00;;;40.26;11.92
43450;BME280;29041;42.266;23.110;2022-07-23T12:42:20;95738.94;;;40.70;11.08
43450;BME280;29041;42.266;23.110;2022-07-23T12:45:10;95736.97;;;41.39;10.22
43450;BME280;29041;42.266;23.110;2022-07-23T12:48:04;95728.97;;;41.88;10.88
43450;BME280;29041;42.266;23.110;2022-07-23T12:50:55;95731.78;;;41.88;10.37
43450;BME280;29041;42.266;23.110;2022-07-23T12:53:45;95728.22;;;42.85;10.57
43450;BME280;29041;42.266;23.110;2022-07-23T12:56:35;95733.34;;;41.83;11.57
43450;BME280;29041;42.266;23.110;2022-07-23T12:59:22;95726.38;;;41.90;10.79
43450;BME280;29041;42.266;23.110;2022-07-23T13:02:14;95742.03;;;41.66;10.58
43450;BME280;29041;42.266;23.110;2022-07-23T13:05:01;95730.09;;;41.60;11.43
43450;BME280;29041;42.266;23.110;2022-07-23T13:07:49;95732.59;;;41.19;10.83
43450;BME280;29041;42.266;23.110;2022-07-23T13:10:37;95728.03;;;41.16;10.83
43450;BME280;29041;42.266;23.110;2022-07-23T13:13:26;95714.16;;;40.38;11.51
43450;BME280;29041;42.266;23.110;2022-07-23T13:16:13;95710.22;;;40.78;12.41
43450;BME280;29041;42.266;23.110;2022-07-23T13:19:01;95712.53;;;40.79;12.19
43450;BME280;29041;42.266;23.110;2022-07-23T13:21:48;95718.16;;;40.79;11.61
43450;BME280;29041;42.266;23.110;2022-07-23T13:24:35;95721.69;;;41.73;12.06
43450;BME280;29041;42.266;23.110;2022-07-23T13:27:24;95705.22;;;40.34;11.27
43450;BME280;29041;42.266;23.110;2022-07-23T13:30:11;95697.41;;;40.21;11.56
43450;BME280;29041;42.266;23.110;2022-07-23T13:32:58;95714.59;;;39.70;11.14
43450;BME280;29041;42.266;23.110;2022-07-23T13:35:45;95712.03;;;40.75;10.32
43450;BME280;29041;42.266;23.110;2022-07-23T13:38:32;95711.75;;;41.28;10.33
43450;BME280;29041;42.266;23.110;2022-07-23T13:41:20;95701.25;;;41.29;10.43
43450;BME280;29041;42.266;23.110;2022-07-23T13:44:08;95703.59;;;41.88;10.27
43450;BME280;29041;42.266;23.110;2022-07-23T13:46:55;95704.56;;;41.71;10.78
43450;BME280;29041;42.266;23.110;2022-07-23T13:49:43;95707.91;;;41.50;10.88
43450;BME280;29041;42.266;23.110;2022-07-23T13:52:30;95702.88;;;42.20;10.99
43450;BME280;29041;42.266;23.110;2022-07-23T13:55:19;95701.91;;;41.79;11.50
43450;BME280;29041;42.266;23.110;2022-07-23T13:58:07;95709.09;;;41.99;10.53
43450;BME280;29041;42.266;23.110;2022-07-23T14:00:56;95700.44;;;42.43;10.34
43450;BME280;29041;42.266;23.110;2022-07-23T14:03:43;95705.28;;;41.96;10.63
43450;BME280;29041;42.266;23.110;2022-07-23T14:06:30;95690.38;;;42.47;10.39
43450;BME280;29041;42.266;23.110;2022-07-23T14:09:18;95699.22;;;41.48;10.67
43450;BME280;29041;42.266;23.110;2022-07-23T14:12:06;95698.41;;;41.73;11.86
43450;BME280;29041;42.266;23.110;2022-07-23T14:14:53;95696.88;;;41.52;10.84
43450;BME280;29041;42.266;23.110;2022-07-23T14:17:44;95691.13;;;42.15;10.73
43450;BME280;29041;42.266;23.110;2022-07-23T14:20:31;95698.56;;;41.61;11.17
43450;BME280;29041;42.266;23.110;2022-07-23T14:23:18;95695.63;;;42.24;11.63
43450;BME280;29041;42.266;23.110;2022-07-23T14:26:06;95700.13;;;42.14;11.38
43450;BME280;29041;42.266;23.110;2022-07-23T14:28:54;95686.06;;;42.27;10.76
43450;BME280;29041;42.266;23.110;2022-07-23T14:31:41;95700.13;;;42.46;11.16
43450;BME280;29041;42.266;23.110;2022-07-23T14:34:30;95695.06;;;41.55;12.07
43450;BME280;29041;42.266;23.110;2022-07-23T14:37:17;95697.34;;;42.27;11.42
43450;BME280;29041;42.266;23.110;2022-07-23T14:40:05;95692.00;;;41.53;11.49
43450;BME280;29041;42.266;23.110;2022-07-23T14:42:53;95687.34;;;41.55;10.25
43450;BME280;29041;42.266;23.110;2022-07-23T14:45:40;95687.28;;;41.99;10.75
43450;BME280;29041;42.266;23.110;2022-07-23T14:48:27;95689.31;;;41.42;10.85